Time;durP1;ratioP1;P1;durP2;ratioP2;P2;SDS_P1;SDS_P2;PMS_P1;PMS_P2;Temp;Humidity;BMP_temperature;BMP_pressure;BME280_temperature;BME280_humidity;BME280_pressure;Samples;Min_cycle;Max_cycle;Signal;HPM_P1;HPM_P2
2022/02/04 00:25:16;;;;;;;18.27;10.25;;;;;;;8.31;69.43;97096.59;4962656;28;20250;-85
2022/02/04 00:27:41;;;;;;;15.00;8.88;;;;;;;8.29;69.39;97085.63;4952786;28;20506;-86
2022/02/04 00:30:17;;;;;;;18.77;9.85;;;;;;;8.27;69.24;97090.28;4948564;28;20406;-86
2022/02/04 00:32:45;;;;;;;18.30;9.07;;;;;;;8.29;69.32;97093.41;4928445;28;20692;-86
2022/02/04 00:40:39;;;;;;;18.42;9.45;;;;;;;8.24;69.49;97093.31;4939433;28;20064;-85
2022/02/04 00:43:09;;;;;;;16.48;9.30;;;;;;;8.27;69.65;97085.09;4957604;28;20195;-86
2022/02/04 00:45:49;;;;;;;17.10;9.40;;;;;;;8.27;69.40;97095.47;4945207;28;20283;-86
2022/02/04 01:28:20;;;;;;;14.90;8.02;;;;;;;8.29;68.86;97110.78;4950250;28;20232;-86
2022/02/04 01:30:45;;;;;;;12.65;7.47;;;;;;;8.33;68.74;97109.31;4934450;28;20172;-86
2022/02/04 01:33:13;;;;;;;12.00;7.18;;;;;;;8.35;69.03;97108.06;4950540;28;20716;-86
2022/02/04 01:35:38;;;;;;;12.10;7.20;;;;;;;8.39;68.82;97103.19;4950281;28;20294;-86
2022/02/04 01:38:04;;;;;;;12.32;7.18;;;;;;;8.40;68.58;97113.34;4930500;28;20684;-86
2022/02/04 01:40:29;;;;;;;14.30;6.88;;;;;;;8.35;68.64;97109.88;4930671;28;20310;-86
2022/02/04 01:42:54;;;;;;;12.88;7.18;;;;;;;8.36;69.10;97111.44;4932367;28;20282;-86
2022/02/04 01:45:20;;;;;;;12.77;7.32;;;;;;;8.25;68.87;97105.28;4950468;28;20097;-86
2022/02/04 01:47:57;;;;;;;16.55;8.02;;;;;;;8.25;69.04;97107.88;4967369;28;20438;-86
2022/02/04 01:50:29;;;;;;;13.27;6.50;;;;;;;8.16;69.34;97112.63;4948087;28;20224;-86
2022/02/04 01:52:56;;;;;;;14.07;7.88;;;;;;;8.31;69.16;97103.56;4931795;28;20209;-86
2022/02/04 01:55:22;;;;;;;16.60;8.38;;;;;;;8.30;68.73;97100.19;4946134;28;20204;-86
2022/02/04 01:57:48;;;;;;;14.18;7.72;;;;;;;8.33;68.63;97094.53;4955821;28;20501;-86
2022/02/04 02:00:14;;;;;;;15.15;7.80;;;;;;;8.22;68.87;97103.16;4940267;28;20110;-88
2022/02/04 02:02:40;;;;;;;14.02;8.25;;;;;;;8.27;69.29;97095.47;4932770;28;20204;-86
2022/02/04 02:05:06;;;;;;;15.25;7.97;;;;;;;8.35;68.65;97102.88;4962670;28;20329;-86
2022/02/04 02:07:33;;;;;;;14.48;7.43;;;;;;;8.35;69.34;97092.50;4942056;28;20229;-86
2022/02/04 02:10:03;;;;;;;15.25;7.82;;;;;;;8.33;69.00;97094.53;4947305;28;20348;-86
2022/02/04 02:12:36;;;;;;;13.55;6.93;;;;;;;8.36;69.34;97095.88;4917975;28;20671;-86
2022/02/04 02:15:14;;;;;;;12.52;7.88;;;;;;;8.34;68.80;97090.13;4935663;28;20274;-85
2022/02/04 02:42:24;;;;;;;11.73;7.07;;;;;;;8.24;68.56;97081.16;4946581;28;20225;-86
2022/02/04 02:45:11;;;;;;;13.77;7.82;;;;;;;8.06;68.94;97071.72;4925463;28;20516;-86
2022/02/04 02:48:03;;;;;;;11.63;6.78;;;;;;;8.12;69.19;97079.59;4944718;28;20210;-86
2022/02/04 02:56:16;;;;;;;12.02;7.07;;;;;;;8.10;69.45;97073.88;4964276;28;20282;-86
2022/02/04 02:58:37;;;;;;;13.32;7.38;;;;;;;8.16;68.89;97085.94;4949066;28;20195;-86
2022/02/04 03:01:05;;;;;;;13.85;6.93;;;;;;;8.16;69.03;97078.94;4934079;28;20240;-87
2022/02/04 03:03:34;;;;;;;13.27;7.97;;;;;;;8.15;69.12;97090.31;4930912;28;20209;-86
2022/02/04 03:05:59;;;;;;;13.90;7.45;;;;;;;8.19;69.25;97088.03;4949784;28;20247;-86
2022/02/04 03:08:25;;;;;;;13.77;7.85;;;;;;;8.14;69.41;97078.38;4947369;28;20209;-86
2022/02/04 03:10:55;;;;;;;12.68;7.55;;;;;;;8.15;69.85;97081.75;4932096;28;20265;-87
2022/02/04 03:13:26;;;;;;;12.95;7.35;;;;;;;8.05;69.32;97085.72;4926677;28;20356;-87
2022/02/04 03:15:59;;;;;;;12.13;7.35;;;;;;;8.16;69.62;97078.16;4930608;28;20286;-86
2022/02/04 03:18:28;;;;;;;13.88;7.78;;;;;;;8.19;69.36;97081.06;4931007;28;20201;-86
2022/02/04 03:20:58;;;;;;;12.40;7.05;;;;;;;8.22;69.37;97072.03;4959432;28;20199;-86
2022/02/04 03:23:25;;;;;;;13.15;6.80;;;;;;;7.98;70.16;97084.28;4925017;28;20709;-86
2022/02/04 03:25:56;;;;;;;12.50;6.97;;;;;;;8.04;69.86;97084.16;4948168;28;20244;-86
2022/02/04 03:28:26;;;;;;;13.70;7.07;;;;;;;8.03;69.36;97081.78;4950722;28;20733;-85
2022/02/04 03:30:55;;;;;;;11.60;7.18;;;;;;;8.17;69.26;97084.88;4940673;28;20544;-86
2022/02/04 03:33:24;;;;;;;14.20;7.85;;;;;;;8.11;69.37;97071.06;4933571;28;20266;-86
2022/02/04 03:35:50;;;;;;;14.63;7.72;;;;;;;8.06;69.54;97092.47;4959760;28;20208;-87
2022/02/04 03:38:15;;;;;;;13.63;7.72;;;;;;;8.14;69.70;97080.16;4933306;28;20275;-86
2022/02/04 03:40:41;;;;;;;14.75;8.20;;;;;;;8.18;69.37;97086.47;4932657;28;20302;-87
2022/02/04 03:43:06;;;;;;;15.40;8.88;;;;;;;8.21;69.56;97080.84;4938651;28;20414;-86
2022/02/04 03:45:32;;;;;;;14.30;8.05;;;;;;;8.18;69.48;97082.06;4965454;28;20204;-86
2022/02/04 03:47:57;;;;;;;16.13;7.70;;;;;;;8.21;69.21;97079.03;4929904;28;20358;-86
2022/02/04 03:50:23;;;;;;;15.93;8.20;;;;;;;8.20;69.85;97081.84;4947995;28;20283;-86
2022/02/04 03:52:49;;;;;;;13.88;8.35;;;;;;;8.23;69.49;97084.75;4935701;28;20256;-86
2022/02/04 03:55:14;;;;;;;14.40;7.95;;;;;;;8.14;69.58;97073.19;4957058;28;20295;-86
2022/02/04 03:57:43;;;;;;;12.60;7.18;;;;;;;8.09;69.75;97086.06;4954793;28;20555;-87
2022/02/04 04:00:12;;;;;;;14.98;7.53;;;;;;;7.97;70.27;97083.50;4916284;28;20165;-87
2022/02/04 04:02:37;;;;;;;13.73;6.93;;;;;;;8.12;70.31;97082.19;4965656;28;20429;-86
2022/02/04 04:05:03;;;;;;;12.68;7.32;;;;;;;8.10;69.86;97084.25;4946074;28;20753;-85
2022/02/04 04:07:31;;;;;;;12.45;6.95;;;;;;;8.19;69.76;97077.66;4926316;28;20220;-86
2022/02/04 04:10:08;;;;;;;12.27;7.10;;;;;;;8.17;69.57;97075.28;4930815;28;20329;-86
2022/02/04 04:12:34;;;;;;;10.63;5.97;;;;;;;8.19;69.21;97077.66;4947999;28;20658;-86
2022/02/04 04:15:05;;;;;;;11.27;6.65;;;;;;;8.15;69.83;97076.56;4928885;28;20094;-85
2022/02/04 04:17:38;;;;;;;14.02;6.63;;;;;;;8.03;69.94;97079.97;4933103;28;20106;-86
2022/02/04 04:20:04;;;;;;;11.73;7.22;;;;;;;8.05;69.75;97080.53;4939186;28;20353;-86
2022/02/04 04:22:29;;;;;;;11.88;6.90;;;;;;;8.15;70.19;97084.34;4946112;28;20707;-85
2022/02/04 04:24:54;;;;;;;10.05;5.93;;;;;;;8.30;69.54;97091.63;4932468;28;20330;-86
2022/02/04 04:27:20;;;;;;;10.20;6.35;;;;;;;8.22;69.76;97085.75;4948584;28;20257;-86
2022/02/04 04:29:47;;;;;;;11.35;6.70;;;;;;;8.17;69.89;97084.88;4932659;28;20192;-86
2022/02/04 04:32:12;;;;;;;12.88;6.50;;;;;;;8.21;69.59;97083.44;4916774;28;20368;-86
2022/02/04 04:34:38;;;;;;;11.30;6.55;;;;;;;8.26;69.92;97088.72;4932088;28;20662;-86
2022/02/04 04:37:05;;;;;;;13.38;6.30;;;;;;;8.25;69.81;97084.53;4950634;28;20346;-86
2022/02/04 04:39:43;;;;;;;11.27;6.00;;;;;;;8.21;69.24;97080.84;4927044;28;20291;-86
2022/02/04 04:42:18;;;;;;;12.45;6.70;;;;;;;8.16;69.95;97091.13;4950726;28;20204;-86
2022/02/04 04:45:07;;;;;;;11.20;6.47;;;;;;;8.11;69.63;97088.44;4933525;28;20659;-88
2022/02/04 05:30:56;;;;;;;12.63;7.20;;;;;;;8.22;70.13;97085.00;4962637;28;20188;-86
2022/02/04 05:33:21;;;;;;;12.85;7.47;;;;;;;8.09;70.38;97086.06;4947773;28;20215;-86
2022/02/04 05:35:47;;;;;;;14.38;7.82;;;;;;;8.27;70.14;97085.09;4929095;28;20225;-86
2022/02/04 05:38:14;;;;;;;12.95;7.75;;;;;;;8.31;69.39;97075.03;4931283;28;20560;-86
2022/02/04 05:40:43;;;;;;;13.48;7.60;;;;;;;8.24;69.67;97075.16;4944720;28;20201;-86
2022/02/04 05:43:17;;;;;;;16.02;8.30;;;;;;;8.04;70.50;97071.19;4964434;28;20112;-85
2022/02/04 05:45:51;;;;;;;13.47;7.60;;;;;;;8.12;70.71;97084.78;4916764;28;20178;-86
2022/02/04 05:48:17;;;;;;;13.40;7.20;;;;;;;8.14;70.44;97080.16;4930754;28;20169;-86
2022/02/04 05:53:17;;;;;;;13.02;7.90;;;;;;;8.15;70.19;97084.34;4948701;28;20549;-86
2022/02/04 05:55:55;;;;;;;13.13;8.38;;;;;;;8.17;70.56;97082.28;4946779;28;20298;-85
2022/02/04 06:06:21;;;;;;;13.57;7.20;;;;;;;8.03;70.96;97089.56;4948156;28;20612;-86
2022/02/04 06:24:56;;;;;;;11.73;6.10;;;;;;;8.07;70.63;97090.66;4908126;28;20245;-86
2022/02/04 06:27:25;;;;;;;12.95;6.82;;;;;;;7.97;70.66;97088.69;4889632;28;20372;-86
2022/02/04 06:29:52;;;;;;;13.73;6.82;;;;;;;8.15;70.38;97089.53;4874770;28;20081;-85
2022/02/04 06:32:19;;;;;;;12.05;6.40;;;;;;;8.14;70.60;97080.97;4870821;28;20765;-87
2022/02/04 06:34:46;;;;;;;11.73;6.38;;;;;;;8.07;70.59;97086.28;4890403;28;20329;-85
2022/02/04 06:37:11;;;;;;;12.23;6.93;;;;;;;8.03;70.73;97089.56;4880177;28;20797;-85
2022/02/04 06:39:36;;;;;;;10.43;6.07;;;;;;;8.11;70.38;97086.59;4891212;28;20306;-85
2022/02/04 06:42:03;;;;;;;9.75;5.43;;;;;;;8.18;70.50;97089.06;4891271;28;20081;-85
2022/02/04 06:44:29;;;;;;;11.82;6.65;;;;;;;8.16;70.06;97094.47;4890591;28;20261;-85
2022/02/04 06:46:54;;;;;;;9.30;5.72;;;;;;;8.20;70.40;97079.25;4875428;28;20222;-85
2022/02/04 06:49:20;;;;;;;9.93;5.85;;;;;;;8.25;70.29;97084.53;4891376;28;20570;-85
2022/02/04 06:51:45;;;;;;;9.25;5.50;;;;;;;8.14;70.78;97074.97;4907094;28;20227;-87
2022/02/04 06:54:10;;;;;;;11.68;7.10;;;;;;;8.16;70.36;97093.72;4906834;28;20225;-86
2022/02/04 06:56:36;;;;;;;10.18;5.55;;;;;;;8.13;70.34;97097.53;4891020;28;20289;-85
2022/02/04 06:59:03;;;;;;;10.00;6.03;;;;;;;8.09;70.55;97093.03;4921320;28;20678;-85
2022/02/04 07:01:31;;;;;;;11.00;6.43;;;;;;;8.05;70.80;97088.31;4934807;28;20169;-87
2022/02/04 07:03:56;;;;;;;9.85;6.18;;;;;;;8.19;70.69;97104.41;4950735;28;20717;-85
2022/02/04 07:06:22;;;;;;;11.82;6.35;;;;;;;8.06;70.78;97084.69;4946470;28;20364;-85
2022/02/04 07:09:10;;;;;;;10.95;6.10;;;;;;;7.97;70.79;97080.91;4916929;28;20343;-86
2022/02/04 07:12:06;;;;;;;12.35;6.53;;;;;;;7.88;72.03;97084.84;4950343;28;20204;-85
2022/02/04 07:17:19;;;;;;;10.32;5.68;;;;;;;8.05;70.87;97090.91;4967093;28;20690;-85
2022/02/04 07:19:46;;;;;;;9.45;5.20;;;;;;;8.16;70.53;97098.91;4951633;28;20204;-85
2022/02/04 07:22:22;;;;;;;9.00;5.53;;;;;;;8.06;71.50;97100.25;4957864;28;20787;-85
2022/02/04 07:24:50;;;;;;;9.88;5.35;;;;;;;8.09;70.50;97100.81;4964834;28;20279;-84
2022/02/04 07:27:18;;;;;;;10.10;5.22;;;;;;;8.07;71.57;97101.03;4929580;28;20284;-85
2022/02/04 07:29:46;;;;;;;10.70;5.28;;;;;;;8.09;70.64;97093.84;4938004;28;20195;-85
2022/02/04 07:32:21;;;;;;;7.00;4.10;;;;;;;7.95;71.95;97090.72;4971725;28;20209;-85
2022/02/04 07:42:40;;;;;;;8.02;4.60;;;;;;;8.21;71.20;97099.00;4965193;28;20251;-85
2022/02/04 07:45:05;;;;;;;7.40;4.72;;;;;;;8.23;71.05;97094.34;4917297;28;20196;-85
2022/02/04 07:47:32;;;;;;;8.65;5.22;;;;;;;8.14;71.40;97090.53;4955035;28;20189;-85
2022/02/04 07:49:57;;;;;;;8.73;4.95;;;;;;;8.15;71.23;97098.09;4949217;28;20212;-85
2022/02/04 07:52:22;;;;;;;8.05;4.85;;;;;;;8.17;71.26;97085.66;4933281;28;20283;-85
2022/02/04 07:54:48;;;;;;;10.23;6.43;;;;;;;8.22;70.25;97085.00;4933269;28;20453;-85
2022/02/04 07:57:13;;;;;;;8.73;5.32;;;;;;;8.19;70.86;97090.63;4965964;28;20243;-86
2022/02/04 07:59:39;;;;;;;10.10;5.32;;;;;;;8.27;70.69;97085.09;4951341;28;20202;-85
2022/02/04 08:02:07;;;;;;;9.45;5.47;;;;;;;8.12;70.93;97092.56;4968354;28;20582;-85
2022/02/04 08:04:37;;;;;;;9.95;5.43;;;;;;;8.14;70.72;97082.75;4944795;28;20350;-85
2022/02/04 08:07:08;;;;;;;10.90;6.40;;;;;;;8.15;70.84;97092.13;4931387;28;20208;-85
2022/02/04 08:12:37;;;;;;;10.00;5.95;;;;;;;8.17;70.58;97077.13;4964936;28;20192;-86
2022/02/04 08:47:00;;;;;;;7.43;4.53;;;;;;;8.21;70.73;97066.06;4949543;28;20220;-86
2022/02/04 08:49:40;;;;;;;8.18;4.03;;;;;;;8.24;71.24;97064.78;4929701;28;20105;-85
2022/02/04 09:00:47;;;;;;;6.97;4.00;;;;;;;8.33;70.64;97067.78;4963819;28;20075;-85
2022/02/04 09:03:13;;;;;;;5.78;3.22;;;;;;;8.36;71.15;97068.16;4940635;28;20254;-86
2022/02/04 09:05:45;;;;;;;7.72;3.67;;;;;;;8.10;70.83;97063.50;4963954;28;20208;-87
2022/02/04 09:08:16;;;;;;;6.22;3.65;;;;;;;8.14;71.85;97074.97;4928038;28;20166;-86
2022/02/04 09:10:42;;;;;;;4.03;2.70;;;;;;;8.15;71.12;97066.19;4962894;28;20646;-86
2022/02/04 09:17:00;;;;;;;4.70;3.20;;;;;;;8.24;71.19;97075.97;4927941;28;20256;-85
2022/02/04 09:19:29;;;;;;;3.95;2.50;;;;;;;8.13;71.83;97068.22;4930211;28;20240;-85
2022/02/04 09:24:23;;;;;;;5.15;2.67;;;;;;;8.33;71.02;97075.56;4930200;28;20204;-86
2022/02/04 09:26:49;;;;;;;3.90;2.70;;;;;;;8.21;70.73;97070.47;4940293;28;20221;-86
2022/02/04 09:29:14;;;;;;;4.80;3.17;;;;;;;8.24;71.10;97072.56;4930962;28;20133;-86
2022/02/04 09:31:40;;;;;;;4.63;3.30;;;;;;;8.32;70.97;97076.63;4961444;28;20247;-86
2022/02/04 09:34:07;;;;;;;3.50;2.60;;;;;;;8.34;70.53;97075.34;4934735;28;20187;-86
2022/02/04 09:36:36;;;;;;;5.07;2.97;;;;;;;8.30;70.41;97069.06;4917765;28;20249;-85
2022/02/04 09:39:03;;;;;;;6.05;3.03;;;;;;;8.30;70.64;97068.28;4945307;28;20252;-86
2022/02/04 09:41:28;;;;;;;3.90;2.40;;;;;;;8.27;70.91;97058.38;4948203;28;20516;-86
2022/02/04 09:43:54;;;;;;;4.53;2.70;;;;;;;8.20;71.23;97064.47;4933108;28;20318;-86
2022/02/04 09:46:20;;;;;;;3.38;2.33;;;;;;;8.20;71.34;97055.91;4951109;28;20294;-86
2022/02/04 09:48:51;;;;;;;3.28;2.20;;;;;;;8.24;71.36;97057.81;4951976;28;20208;-85
2022/02/04 09:51:20;;;;;;;5.28;2.75;;;;;;;8.02;71.91;97056.84;4935187;28;20442;-85
2022/02/04 10:17:40;;;;;;;4.55;2.45;;;;;;;8.10;71.51;97034.97;4962738;28;20612;-85
2022/02/04 10:20:06;;;;;;;6.05;3.83;;;;;;;8.06;72.09;97032.84;4934914;28;20224;-84
2022/02/04 10:22:34;;;;;;;5.45;3.33;;;;;;;7.97;71.65;97020.47;4952299;28;20275;-85
2022/02/04 10:25:00;;;;;;;5.57;3.35;;;;;;;8.14;71.46;97023.91;4931975;28;20348;-85
2022/02/04 10:27:30;;;;;;;5.97;4.03;;;;;;;8.12;71.76;97025.16;4948482;28;20345;-85
2022/02/04 10:29:59;;;;;;;5.40;3.20;;;;;;;8.23;71.35;97032.09;4955099;28;20064;-85
2022/02/04 10:32:37;;;;;;;5.43;3.53;;;;;;;7.90;72.10;97031.00;4948381;28;20273;-85
2022/02/04 10:35:07;;;;;;;5.95;3.70;;;;;;;8.24;71.01;97021.50;4925222;28;20333;-85
2022/02/04 10:37:35;;;;;;;5.43;3.70;;;;;;;8.19;71.36;97025.78;4967007;28;20260;-85
2022/02/04 10:40:12;;;;;;;;;;;;;;;;;;;;;
2022/02/04 10:45:25;;;;;;;;;;;;;;;;;;;;;
2022/02/04 11:04:14;;;;;;;4.32;3.13;;;;;;;8.23;71.73;97016.53;4951075;28;20710;-84
2022/02/04 11:31:47;;;;;;;3.22;1.83;;;;;;;8.49;71.09;96959.94;4968514;28;20192;-85
2022/02/04 11:56:58;;;;;;;1.05;0.70;;;;;;;8.44;69.28;96919.88;4965359;28;20705;-86
2022/02/04 11:59:36;;;;;;;1.05;0.75;;;;;;;8.72;69.68;96920.84;4934573;28;20642;-85
2022/02/04 12:02:29;;;;;;;1.00;0.80;;;;;;;8.46;68.74;96916.28;4947568;28;20176;-85
2022/02/04 12:05:04;;;;;;;1.23;0.80;;;;;;;8.93;67.49;96915.94;4943700;28;20262;-84
2022/02/04 12:07:40;;;;;;;0.75;0.52;;;;;;;9.05;67.94;96908.81;4949051;28;20183;-85
2022/02/04 12:10:12;;;;;;;0.85;0.60;;;;;;;9.02;67.21;96903.31;4943867;28;20239;-84
2022/02/04 12:12:52;;;;;;;1.35;0.45;;;;;;;8.88;67.07;96887.28;4950144;28;20208;-85
2022/02/04 12:15:27;;;;;;;0.50;0.35;;;;;;;8.86;66.85;96892.72;4937093;28;20655;-87
2022/02/04 12:17:53;;;;;;;0.68;0.38;;;;;;;8.97;67.10;96891.03;4965686;28;20642;-89
2022/02/04 12:20:50;;;;;;;1.48;0.60;;;;;;;9.04;67.18;96885.66;4917028;28;20293;-84
2022/02/04 12:23:46;;;;;;;1.20;0.85;;;;;;;9.32;67.36;96887.28;4945737;28;20250;-85
2022/02/04 12:26:19;;;;;;;0.35;0.30;;;;;;;9.27;66.34;96882.84;4966558;28;20192;-85
2022/02/04 12:28:51;;;;;;;0.65;0.30;;;;;;;9.07;65.35;96875.59;4946155;28;20275;-86
2022/02/04 12:31:26;;;;;;;0.30;0.20;;;;;;;9.29;65.98;96887.78;4929904;28;20508;-86
2022/02/04 12:33:55;;;;;;;0.47;0.22;;;;;;;8.68;65.77;96872.22;4959716;28;20188;-86
2022/02/04 12:36:36;;;;;;;0.28;0.20;;;;;;;8.46;66.41;96869.59;4925981;28;20610;-84
2022/02/04 12:39:11;;;;;;;0.47;0.30;;;;;;;8.53;66.44;96875.38;4944868;28;20209;-85
2022/02/04 12:41:39;;;;;;;0.38;0.17;;;;;;;8.62;66.08;96868.78;4933250;28;20207;-85
2022/02/04 12:44:09;;;;;;;0.68;0.20;;;;;;;8.74;66.17;96856.47;4932481;28;20228;-88
2022/02/04 12:46:39;;;;;;;0.52;0.30;;;;;;;8.58;65.10;96854.69;4933491;28;20830;-87
2022/02/04 12:49:07;;;;;;;0.70;0.30;;;;;;;8.46;65.92;96854.78;4946587;28;20200;-88
2022/02/04 12:54:09;;;;;;;0.57;0.20;;;;;;;8.70;66.29;96852.78;4964944;28;20208;-86
2022/02/04 12:56:41;;;;;;;0.60;0.22;;;;;;;8.69;66.22;96835.66;4949206;28;20434;-86
2022/02/04 13:02:08;;;;;;;;;;;;;;;;;;;;;
2022/02/04 13:07:32;;;;;;;0.30;0.30;;;;;;;8.56;65.99;96838.59;4948904;28;20662;-87
2022/02/04 13:09:58;;;;;;;0.60;0.20;;;;;;;8.73;66.16;96838.56;4935539;28;20200;-87
2022/02/04 13:12:23;;;;;;;0.55;0.30;;;;;;;8.49;67.65;96828.38;4932422;28;20200;-86
2022/02/04 13:14:49;;;;;;;0.30;0.20;;;;;;;8.64;66.81;96825.22;4921009;28;20196;-85
2022/02/04 13:17:36;;;;;;;0.38;0.28;;;;;;;8.41;67.19;96826.97;4953521;28;20177;-87
2022/02/04 13:20:03;;;;;;;1.23;0.43;;;;;;;8.49;67.30;96832.78;4948223;28;20157;-85
2022/02/04 13:22:29;;;;;;;0.65;0.32;;;;;;;8.46;67.63;96817.69;4948208;28;20205;-86
2022/02/04 13:25:04;;;;;;;0.80;0.52;;;;;;;8.19;68.63;96811.34;4964674;28;20326;-86
2022/02/04 13:27:30;;;;;;;0.50;0.30;;;;;;;8.40;68.23;96796.84;4946310;28;20205;-85
2022/02/04 13:29:55;;;;;;;0.40;0.38;;;;;;;8.57;67.89;96803.84;4965261;28;20196;-87
2022/02/04 13:32:27;;;;;;;0.68;0.38;;;;;;;8.36;67.54;96790.56;4931760;28;20282;-86
2022/02/04 13:34:53;;;;;;;0.93;0.40;;;;;;;8.46;67.79;96783.97;4935750;28;20235;-86
2022/02/04 13:37:33;;;;;;;0.63;0.30;;;;;;;8.39;68.07;96787.47;4932203;28;20335;-87
2022/02/04 13:40:04;;;;;;;0.60;0.40;;;;;;;8.71;67.58;96779.09;4932232;28;20331;-86
2022/02/04 13:42:42;;;;;;;0.73;0.43;;;;;;;8.79;67.08;96770.88;4949727;28;20219;-86
2022/02/04 13:45:38;;;;;;;0.65;0.30;;;;;;;8.84;66.75;96766.78;4965136;28;20176;-86
2022/02/04 13:48:17;;;;;;;0.63;0.30;;;;;;;8.70;66.85;96756.75;4964128;28;20154;-87
2022/02/04 13:51:08;;;;;;;1.02;0.60;;;;;;;8.51;68.12;96760.69;4940004;28;20241;-87
2022/02/04 13:53:39;;;;;;;1.90;0.50;;;;;;;8.76;67.02;96757.63;4933755;28;20162;-86
2022/02/04 13:56:18;;;;;;;1.05;0.40;;;;;;;8.57;67.40;96754.53;4931210;28;20247;-87
2022/02/04 13:58:52;;;;;;;0.95;0.65;;;;;;;8.73;67.20;96750.31;4923940;28;20283;-86
2022/02/04 14:03:49;;;;;;;0.82;0.60;;;;;;;8.33;68.78;96752.13;4945773;28;20658;-86
2022/02/04 14:06:21;;;;;;;0.73;0.52;;;;;;;8.62;67.79;96754.59;4916604;28;20668;-87
2022/02/04 14:11:25;;;;;;;0.52;0.50;;;;;;;8.56;68.14;96750.38;4962909;28;20655;-86
2022/02/04 14:13:52;;;;;;;0.80;0.50;;;;;;;8.47;67.71;96751.81;4931086;28;20213;-85
2022/02/04 14:16:20;;;;;;;1.23;0.40;;;;;;;8.27;68.37;96747.13;4932371;28;20733;-86
2022/02/04 14:18:45;;;;;;;0.93;0.57;;;;;;;8.57;67.99;96744.94;4924011;28;20201;-86
2022/02/04 14:21:10;;;;;;;1.70;0.70;;;;;;;8.62;67.56;96752.00;4959230;28;20248;-85
2022/02/04 14:23:36;;;;;;;1.58;0.70;;;;;;;8.80;67.08;96756.88;4932219;28;20264;-86
2022/02/04 14:26:11;;;;;;;1.52;0.63;;;;;;;8.50;67.63;96748.72;4948049;28;20703;-84
2022/02/04 14:31:32;;;;;;;0.80;0.50;;;;;;;8.72;67.28;96751.31;4936023;28;20665;-85
2022/02/04 15:00:48;;;;;;;1.65;0.70;;;;;;;8.41;69.69;96717.19;4977306;28;20805;-88
2022/02/04 15:03:18;;;;;;;0.88;0.57;;;;;;;8.55;69.19;96718.44;4970023;28;20270;-87
2022/02/04 15:05:48;;;;;;;1.13;0.70;;;;;;;8.59;69.17;96708.38;4978464;28;20041;-86
2022/02/04 15:08:17;;;;;;;1.45;0.70;;;;;;;8.60;69.82;96721.09;4970068;28;20025;-86
2022/02/04 15:10:45;;;;;;;1.42;1.23;;;;;;;8.32;70.99;96719.44;4944696;28;20045;-86
2022/02/04 15:13:13;;;;;;;1.17;0.70;;;;;;;8.49;70.40;96718.63;4971178;28;20037;-87
2022/02/04 15:15:39;;;;;;;1.02;0.68;;;;;;;8.44;70.51;96712.34;4966124;28;20676;-86
2022/02/04 15:18:05;;;;;;;1.42;0.90;;;;;;;8.33;70.46;96705.44;4954389;28;20025;-86
2022/02/04 15:20:30;;;;;;;1.50;0.80;;;;;;;8.23;70.99;96715.69;4953123;28;20704;-84
2022/02/04 15:22:56;;;;;;;1.45;0.90;;;;;;;8.24;71.20;96710.28;4988817;28;20037;-88
2022/02/04 15:25:23;;;;;;;2.30;0.73;;;;;;;8.28;71.94;96722.72;4948503;28;20037;-85
2022/02/04 15:30:34;;;;;;;0.90;0.60;;;;;;;8.40;71.15;96723.44;4958372;28;20703;-86
2022/02/04 15:33:00;;;;;;;1.35;1.00;;;;;;;8.20;71.82;96710.97;4988035;28;20203;-87
2022/02/04 15:35:27;;;;;;;2.10;0.77;;;;;;;8.17;71.74;96706.28;4973746;28;20037;-88
2022/02/04 15:37:53;;;;;;;0.70;0.60;;;;;;;8.06;72.90;96729.47;4955994;28;20101;-87
2022/02/04 15:40:18;;;;;;;1.65;0.80;;;;;;;8.00;73.01;96720.06;4968211;28;20057;-87
2022/02/04 15:42:52;;;;;;;0.77;0.63;;;;;;;7.85;73.48;96722.44;4947734;28;20029;-85
2022/02/04 15:46:16;;;;;;;1.45;0.80;;;;;;;8.26;72.15;96717.81;4941696;28;20029;-87
2022/02/04 15:48:33;;;;;;;1.20;0.60;;;;;;;8.20;72.22;96726.53;4952981;28;20034;-87
2022/02/04 15:53:32;;;;;;;1.48;0.80;;;;;;;8.49;71.25;96727.19;4971721;28;20283;-87
2022/02/04 16:06:02;;;;;;;0.88;0.70;;;;;;;8.16;72.53;96731.44;4986903;28;20182;-85
2022/02/04 16:08:27;;;;;;;0.60;0.40;;;;;;;8.06;73.25;96721.69;4953063;28;20253;-86
2022/02/04 16:11:00;;;;;;;0.93;0.80;;;;;;;8.05;73.36;96725.31;4939021;28;20048;-86
2022/02/04 16:16:23;;;;;;;1.67;0.63;;;;;;;8.18;72.68;96719.00;4986849;28;20021;-86
2022/02/04 16:19:06;;;;;;;0.77;0.63;;;;;;;8.03;74.04;96724.75;4959560;28;20064;-86
2022/02/04 16:29:14;;;;;;;0.70;0.60;;;;;;;8.19;73.67;96722.38;4987873;28;20614;-85
2022/02/04 16:31:39;;;;;;;1.02;0.50;;;;;;;8.29;73.15;96725.09;4935635;28;20261;-86
2022/02/04 16:34:09;;;;;;;1.05;0.50;;;;;;;8.28;72.92;96720.16;4966932;28;20055;-86
2022/02/04 16:36:40;;;;;;;0.80;0.68;;;;;;;8.05;73.29;96714.16;4961673;28;20767;-85
2022/02/04 16:39:07;;;;;;;1.02;0.80;;;;;;;8.39;72.53;96709.66;4970795;28;20224;-85
2022/02/04 16:41:46;;;;;;;3.90;2.40;;;;;;;8.10;73.17;96705.66;4956031;28;20124;-85
2022/02/04 16:44:11;;;;;;;1.55;1.10;;;;;;;8.06;74.05;96707.97;4933280;28;20200;-85
2022/02/04 16:46:36;;;;;;;0.88;0.65;;;;;;;8.06;74.02;96705.38;4930145;28;20463;-85
2022/02/04 16:49:02;;;;;;;1.35;1.25;;;;;;;8.22;73.34;96717.47;4947581;28;20208;-85
2022/02/04 16:51:27;;;;;;;1.00;0.90;;;;;;;8.52;72.58;96718.16;4931879;28;20638;-85
2022/02/04 16:53:53;;;;;;;1.10;0.75;;;;;;;8.35;72.59;96711.16;4950346;28;20334;-87
2022/02/04 16:56:18;;;;;;;1.02;0.82;;;;;;;8.33;73.04;96699.44;4945683;28;20307;-86
2022/02/04 16:58:43;;;;;;;2.25;1.13;;;;;;;8.35;72.66;96716.38;4961183;28;20169;-86
2022/02/04 17:01:09;;;;;;;1.35;0.90;;;;;;;8.41;72.76;96718.00;4954425;28;20239;-85
2022/02/04 17:03:35;;;;;;;1.35;0.90;;;;;;;8.13;73.28;96708.56;4930990;28;20631;-87
2022/02/04 17:06:03;;;;;;;1.30;1.20;;;;;;;8.33;73.28;96725.41;4921440;28;20213;-86
2022/02/04 17:08:46;;;;;;;1.10;0.98;;;;;;;8.37;72.57;96722.09;4932126;28;20192;-85
2022/02/04 17:11:14;;;;;;;2.10;1.10;;;;;;;8.40;72.56;96723.44;4931921;28;20242;-87
2022/02/04 17:13:39;;;;;;;1.35;1.10;;;;;;;8.47;73.13;96734.44;4911906;28;20170;-87
2022/02/04 17:16:05;;;;;;;1.92;1.42;;;;;;;8.43;73.16;96741.13;4931274;28;20299;-86
2022/02/04 17:18:31;;;;;;;2.83;1.50;;;;;;;8.36;72.87;96730.91;4928980;28;20278;-85
2022/02/04 17:20:57;;;;;;;1.98;1.50;;;;;;;8.39;73.15;96732.22;4930147;28;20252;-86
2022/02/04 17:23:32;;;;;;;4.40;2.65;;;;;;;8.47;72.40;96733.66;4931371;28;20225;-85
2022/02/04 17:25:58;;;;;;;2.33;1.77;;;;;;;8.44;73.43;96729.72;4915849;28;20163;-87
2022/02/04 17:28:29;;;;;;;2.55;1.42;;;;;;;8.06;73.63;96731.28;4940476;28;20281;-88
2022/02/04 17:30:55;;;;;;;2.40;2.00;;;;;;;8.21;73.84;96722.94;4931503;28;20614;-86
2022/02/04 17:33:21;;;;;;;2.45;1.95;;;;;;;8.33;73.09;96731.38;4932156;28;20188;-87
2022/02/04 17:35:47;;;;;;;3.22;2.67;;;;;;;8.48;73.41;96741.19;4948497;28;20245;-86
2022/02/04 17:38:12;;;;;;;3.20;2.00;;;;;;;8.16;74.41;96730.66;4933692;28;20769;-86
2022/02/04 17:40:38;;;;;;;13.20;6.60;;;;;;;8.38;73.55;96739.22;4933156;28;20090;-87
2022/02/04 17:43:04;;;;;;;2.97;2.00;;;;;;;8.46;73.09;96745.06;4923221;28;20328;-87
2022/02/04 17:45:30;;;;;;;5.82;3.95;;;;;;;8.60;72.61;96741.06;4950418;28;20359;-86
2022/02/04 17:48:08;;;;;;;9.55;5.32;;;;;;;8.55;72.74;96738.41;4904431;28;20198;-86
2022/02/04 17:50:50;;;;;;;3.22;2.00;;;;;;;8.42;73.76;96732.56;4922893;28;20208;-86
2022/02/04 17:53:22;;;;;;;9.73;6.00;;;;;;;8.65;73.20;96733.34;4936547;28;20169;-87
2022/02/04 17:55:53;;;;;;;3.75;2.92;;;;;;;8.45;73.17;96731.31;4932755;28;20261;-88
2022/02/04 17:58:25;;;;;;;14.63;7.00;;;;;;;8.59;73.06;96737.69;4949413;28;20294;-87
2022/02/04 18:03:37;;;;;;;5.05;2.80;;;;;;;8.34;74.15;96722.56;4947812;28;20262;-85
2022/02/04 18:06:14;;;;;;;5.65;3.72;;;;;;;8.55;73.42;96728.84;4965348;28;20195;-87
2022/02/04 18:08:39;;;;;;;6.68;4.38;;;;;;;8.57;73.43;96721.59;4957427;28;20310;-86
2022/02/04 18:11:05;;;;;;;6.25;3.83;;;;;;;8.46;73.60;96722.47;4934886;28;20260;-87
2022/02/04 18:13:32;;;;;;;5.88;3.83;;;;;;;8.45;74.30;96723.53;4934511;28;20561;-86
2022/02/04 18:15:58;;;;;;;19.42;11.35;;;;;;;8.55;73.87;96720.25;4955846;28;20307;-87
2022/02/04 18:18:24;;;;;;;6.45;4.20;;;;;;;8.56;73.69;96730.38;4935097;28;20309;-86
2022/02/04 18:20:50;;;;;;;10.88;6.47;;;;;;;8.52;73.32;96728.53;4934037;28;20219;-87
2022/02/04 18:23:20;;;;;;;17.00;9.20;;;;;;;8.79;72.63;96729.34;4934367;28;20199;-87
2022/02/04 18:25:55;;;;;;;16.05;9.43;;;;;;;8.75;73.43;96730.84;4971865;28;20296;-86